createdAt,value
2022-10-30T00:00:42.199Z,47.60
2022-10-30T00:03:13.125Z,47.10
2022-10-30T00:05:49.061Z,47.40
2022-10-30T00:08:19.817Z,47.60
2022-10-30T00:10:50.160Z,47.70
2022-10-30T00:13:19.522Z,47.40
2022-10-30T00:15:52.927Z,47.10
2022-10-30T00:18:21.857Z,47.10
2022-10-30T00:20:51.199Z,47.00
2022-10-30T00:23:20.306Z,47.00
2022-10-30T00:25:48.577Z,47.00
2022-10-30T00:28:16.537Z,46.60
2022-10-30T00:30:44.943Z,46.80
2022-10-30T00:33:12.868Z,46.60
2022-10-30T00:35:49.251Z,47.00
2022-10-30T00:38:18.673Z,48.00
2022-10-30T00:40:47.728Z,47.70
2022-10-30T00:43:33.606Z,48.20
2022-10-30T00:46:06.572Z,47.60
2022-10-30T00:48:35.740Z,47.60
2022-10-30T00:51:06.308Z,48.10
2022-10-30T00:53:36.103Z,47.70
2022-10-30T00:56:08.047Z,47.70
2022-10-30T00:58:40.789Z,47.60
2022-10-30T01:01:13.928Z,47.40
2022-10-30T01:03:42.838Z,47.30
2022-10-30T01:06:15.818Z,47.20
2022-10-30T01:08:46.428Z,48.20
2022-10-30T01:11:14.466Z,48.30
2022-10-30T01:13:46.767Z,49.20
2022-10-30T01:16:47.221Z,49.50
2022-10-30T01:19:26.951Z,49.40
2022-10-30T01:22:13.880Z,49.30
2022-10-30T01:24:53.792Z,48.90
2022-10-30T01:27:40.210Z,48.80
2022-10-30T01:30:19.267Z,48.70
2022-10-30T01:33:02.216Z,48.30
2022-10-30T01:35:38.359Z,47.90
2022-10-30T01:38:13.283Z,47.80
2022-10-30T01:40:44.554Z,47.90
2022-10-30T01:43:12.519Z,48.00
2022-10-30T01:45:54.551Z,47.70
2022-10-30T01:48:44.930Z,47.90
2022-10-30T01:51:21.907Z,47.00
2022-10-30T01:53:58.919Z,46.60
2022-10-30T01:56:38.608Z,46.70
2022-10-30T01:59:12.406Z,47.10
2022-10-30T02:01:41.042Z,47.50
2022-10-30T02:04:11.268Z,47.30
2022-10-30T02:06:40.957Z,47.10
2022-10-30T02:09:10.008Z,47.10
2022-10-30T02:11:47.960Z,47.70
2022-10-30T02:14:22.556Z,47.80
2022-10-30T02:16:52.768Z,46.70
2022-10-30T02:19:21.729Z,47.40
2022-10-30T02:21:51.809Z,47.50
2022-10-30T02:24:19.865Z,48.20
2022-10-30T02:26:47.879Z,49.50
2022-10-30T02:29:15.849Z,48.40
2022-10-30T02:31:43.825Z,48.20
2022-10-30T02:34:12.235Z,47.90
2022-10-30T02:36:40.257Z,48.30
2022-10-30T02:39:09.598Z,49.20
2022-10-30T02:41:37.843Z,48.30
2022-10-30T02:44:06.574Z,47.90
2022-10-30T02:46:36.347Z,47.70
2022-10-30T02:49:04.727Z,47.70
2022-10-30T02:51:33.506Z,47.40
2022-10-30T02:54:02.252Z,47.90
2022-10-30T02:56:32.692Z,47.50
2022-10-30T02:59:01.473Z,47.50
2022-10-30T03:01:29.732Z,47.20
2022-10-30T03:03:59.896Z,47.20
2022-10-30T03:06:28.223Z,47.60
2022-10-30T03:08:59.208Z,47.70
2022-10-30T03:11:27.209Z,48.20
2022-10-30T03:13:57.592Z,50.90
2022-10-30T03:16:29.285Z,51.30
2022-10-30T03:18:58.271Z,51.80
2022-10-30T03:21:28.445Z,52.30
2022-10-30T03:23:57.196Z,53.00
2022-10-30T03:26:25.123Z,52.70
2022-10-30T03:28:59.005Z,53.00
2022-10-30T03:31:27.018Z,53.10
2022-10-30T03:34:10.072Z,54.20
2022-10-30T03:36:38.043Z,54.20
2022-10-30T03:39:06.545Z,53.90
2022-10-30T03:41:35.261Z,53.20
2022-10-30T03:44:05.021Z,53.00
2022-10-30T03:46:32.992Z,52.40
2022-10-30T03:49:15.333Z,52.20
2022-10-30T03:51:43.761Z,51.90
2022-10-30T03:54:11.816Z,52.10
2022-10-30T03:56:40.156Z,51.70
2022-10-30T03:59:12.109Z,52.60
2022-10-30T04:01:45.042Z,52.90
2022-10-30T04:04:13.079Z,52.90
2022-10-30T04:06:41.650Z,52.60
2022-10-30T04:09:09.924Z,52.10
2022-10-30T04:11:42.485Z,52.60
2022-10-30T04:14:11.896Z,52.80
2022-10-30T04:16:39.857Z,53.20
2022-10-30T04:19:09.686Z,53.50
2022-10-30T04:21:38.253Z,53.80
2022-10-30T04:24:06.698Z,53.50
2022-10-30T04:26:36.337Z,53.30
2022-10-30T04:29:04.439Z,53.20
2022-10-30T04:31:33.943Z,52.70
2022-10-30T04:34:03.007Z,52.00
2022-10-30T04:36:33.869Z,52.80
2022-10-30T04:39:03.060Z,53.30
2022-10-30T04:41:31.855Z,53.30
2022-10-30T04:44:05.316Z,53.10
2022-10-30T04:46:35.270Z,53.30
2022-10-30T04:49:10.178Z,53.40
2022-10-30T04:51:38.175Z,53.20
2022-10-30T04:54:08.029Z,53.30
2022-10-30T04:56:38.135Z,53.90
2022-10-30T04:59:07.098Z,53.70
2022-10-30T05:01:36.473Z,53.90
2022-10-30T05:04:05.777Z,54.40
2022-10-30T05:06:34.721Z,54.60
2022-10-30T05:09:03.237Z,55.10
2022-10-30T05:11:41.426Z,55.00
2022-10-30T05:14:09.621Z,55.50
2022-10-30T05:16:40.338Z,55.80
2022-10-30T05:19:08.983Z,57.20
2022-10-30T05:21:37.068Z,57.20
2022-10-30T05:24:06.365Z,56.80
2022-10-30T05:26:42.192Z,56.70
2022-10-30T05:29:10.376Z,56.20
2022-10-30T05:31:40.802Z,55.80
2022-10-30T05:34:17.751Z,55.20
2022-10-30T05:36:48.623Z,55.30
2022-10-30T05:39:17.158Z,56.20
2022-10-30T05:41:48.730Z,56.70
2022-10-30T05:44:29.205Z,55.90
2022-10-30T05:47:05.250Z,55.10
2022-10-30T05:49:35.485Z,55.10
2022-10-30T05:52:06.651Z,55.70
2022-10-30T05:54:34.686Z,56.00
2022-10-30T05:57:10.729Z,56.40
2022-10-30T05:59:40.604Z,56.80
2022-10-30T06:02:10.577Z,56.40
2022-10-30T06:04:38.584Z,55.90
2022-10-30T06:07:11.720Z,55.60
2022-10-30T06:09:39.798Z,56.30
2022-10-30T06:12:27.214Z,56.80
2022-10-30T06:15:04.651Z,57.20
2022-10-30T06:17:34.116Z,57.00
2022-10-30T06:20:14.973Z,57.30
2022-10-30T06:22:55.762Z,57.20
2022-10-30T06:25:27.466Z,57.20
2022-10-30T06:28:18.122Z,57.20
2022-10-30T06:30:48.148Z,56.90
2022-10-30T06:33:17.464Z,56.60
2022-10-30T06:35:50.636Z,57.00
2022-10-30T06:38:20.008Z,56.20
2022-10-30T06:40:50.481Z,56.50
2022-10-30T06:43:28.355Z,56.20
2022-10-30T06:45:59.667Z,56.20
2022-10-30T06:48:33.526Z,55.90
2022-10-30T06:51:03.110Z,56.10
2022-10-30T06:53:34.298Z,56.20
2022-10-30T06:56:22.510Z,55.30
2022-10-30T06:59:06.348Z,54.40
2022-10-30T07:01:46.385Z,54.50
2022-10-30T07:04:20.366Z,54.30
2022-10-30T07:06:48.390Z,55.20
2022-10-30T07:09:18.622Z,55.50
2022-10-30T07:11:47.750Z,55.20
2022-10-30T07:14:38.664Z,55.10
2022-10-30T07:17:14.643Z,56.00
2022-10-30T07:19:47.576Z,56.20
2022-10-30T07:22:16.228Z,56.10
2022-10-30T07:24:51.301Z,56.70
2022-10-30T07:27:31.231Z,55.50
2022-10-30T07:30:12.809Z,55.70
2022-10-30T07:33:10.135Z,56.20
2022-10-30T07:36:01.897Z,56.20
2022-10-30T07:38:48.962Z,56.30
2022-10-30T07:41:30.168Z,56.50
2022-10-30T07:44:16.749Z,56.70
2022-10-30T07:46:56.616Z,56.90
2022-10-30T07:49:46.232Z,56.80
2022-10-30T07:52:17.265Z,57.20
2022-10-30T07:54:46.742Z,56.20
2022-10-30T07:57:35.614Z,55.80
2022-10-30T08:00:22.533Z,56.60
2022-10-30T08:03:00.534Z,56.30
2022-10-30T08:05:37.043Z,56.30
2022-10-30T08:08:10.362Z,56.60
2022-10-30T08:10:38.803Z,56.80
2022-10-30T08:13:06.923Z,56.90
2022-10-30T08:15:34.910Z,57.10
2022-10-30T08:18:03.697Z,57.20
2022-10-30T08:20:31.747Z,56.60
2022-10-30T08:23:00.972Z,56.10
2022-10-30T08:25:32.056Z,55.50
2022-10-30T08:28:01.917Z,55.90
2022-10-30T08:30:35.730Z,56.20
2022-10-30T08:33:08.697Z,55.90
2022-10-30T08:35:57.475Z,55.90
2022-10-30T08:38:28.014Z,55.50
2022-10-30T08:41:15.038Z,56.00
2022-10-30T08:43:47.014Z,56.00
2022-10-30T08:46:15.105Z,55.10
2022-10-30T08:48:43.145Z,55.70
2022-10-30T08:51:11.303Z,55.30
2022-10-30T08:53:44.924Z,55.20
2022-10-30T08:56:17.148Z,55.90
2022-10-30T08:58:52.940Z,54.80
2022-10-30T09:01:21.122Z,54.60
2022-10-30T09:04:07.734Z,54.30
2022-10-30T09:06:58.572Z,55.00
2022-10-30T09:09:50.531Z,53.70
2022-10-30T09:12:19.871Z,54.00
2022-10-30T09:14:48.546Z,54.50
2022-10-30T09:17:16.506Z,53.60
2022-10-30T09:22:26.417Z,53.80
2022-10-30T09:24:54.620Z,53.70
2022-10-30T09:27:59.384Z,53.00
2022-10-30T09:30:31.484Z,53.10
2022-10-30T09:33:04.252Z,53.40
2022-10-30T09:35:52.709Z,52.70
2022-10-30T09:38:20.738Z,52.10
2022-10-30T09:41:10.423Z,52.00
2022-10-30T09:43:50.666Z,52.00
2022-10-30T09:46:40.245Z,51.30
2022-10-30T09:49:25.135Z,51.20
2022-10-30T09:52:14.396Z,50.90
2022-10-30T09:54:56.072Z,51.00
2022-10-30T09:57:34.440Z,50.90
2022-10-30T10:00:11.394Z,51.30
2022-10-30T10:02:57.695Z,51.20
2022-10-30T10:05:35.656Z,50.80
2022-10-30T10:08:43.324Z,50.70
2022-10-30T10:11:35.061Z,51.50
2022-10-30T10:14:08.598Z,51.00
2022-10-30T10:16:42.031Z,50.70
2022-10-30T10:19:17.250Z,50.50
2022-10-30T10:21:48.171Z,50.20
2022-10-30T10:24:20.161Z,49.60
2022-10-30T10:26:50.634Z,49.10
2022-10-30T10:29:34.043Z,49.20
2022-10-30T10:32:15.154Z,49.20
2022-10-30T10:34:56.357Z,48.80
2022-10-30T10:37:32.601Z,49.10
2022-10-30T10:40:17.641Z,49.00
2022-10-30T10:42:57.846Z,49.10
2022-10-30T10:45:32.932Z,49.70
2022-10-30T10:48:26.626Z,50.50
2022-10-30T10:51:02.494Z,50.20
2022-10-30T10:53:37.315Z,50.40
2022-10-30T10:56:06.103Z,50.30
2022-10-30T10:58:40.581Z,49.80
2022-10-30T11:01:15.111Z,49.10
2022-10-30T11:03:53.877Z,49.20
2022-10-30T11:06:23.996Z,47.70
2022-10-30T11:08:54.244Z,48.10
2022-10-30T11:11:22.347Z,47.20
2022-10-30T11:13:51.047Z,47.30
2022-10-30T11:16:26.898Z,47.30
2022-10-30T11:18:59.025Z,47.50
2022-10-30T11:21:30.206Z,47.60
2022-10-30T11:23:58.214Z,47.00
2022-10-30T11:26:32.518Z,46.80
2022-10-30T11:29:05.574Z,47.10
2022-10-30T11:31:37.749Z,47.20
2022-10-30T11:34:37.606Z,46.80
2022-10-30T11:37:06.624Z,46.30
2022-10-30T11:39:36.332Z,45.70
2022-10-30T11:42:14.439Z,45.50
2022-10-30T11:44:44.538Z,45.60
2022-10-30T11:47:15.563Z,45.20
2022-10-30T11:49:49.838Z,46.10
2022-10-30T11:52:20.726Z,45.80
2022-10-30T11:54:54.049Z,46.10
2022-10-30T11:57:33.945Z,45.40
2022-10-30T12:00:05.537Z,45.90
2022-10-30T12:02:43.614Z,46.60
2022-10-30T12:05:32.463Z,45.90
2022-10-30T12:08:19.207Z,46.00
2022-10-30T12:10:57.066Z,45.50
2022-10-30T12:13:25.999Z,45.00
2022-10-30T12:16:07.525Z,44.90
2022-10-30T12:18:36.002Z,45.50
2022-10-30T12:21:05.637Z,45.00
2022-10-30T12:23:34.380Z,45.00
2022-10-30T12:26:09.280Z,45.10
2022-10-30T12:28:37.838Z,45.50
2022-10-30T12:31:11.731Z,45.80
2022-10-30T12:33:44.375Z,45.80
2022-10-30T12:36:17.855Z,45.80
2022-10-30T12:38:50.281Z,45.70
2022-10-30T12:41:24.607Z,45.80
2022-10-30T12:43:59.275Z,45.70
2022-10-30T12:46:34.715Z,45.70
2022-10-30T12:49:12.597Z,45.50
2022-10-30T12:51:50.788Z,45.10
2022-10-30T12:54:26.865Z,44.60
2022-10-30T12:57:14.551Z,44.20
2022-10-30T12:59:52.753Z,44.80
2022-10-30T13:02:30.205Z,44.70
2022-10-30T13:05:04.705Z,44.70
2022-10-30T13:07:41.782Z,44.80
2022-10-30T13:10:26.712Z,44.90
2022-10-30T13:13:01.986Z,44.40
2022-10-30T13:15:34.142Z,44.10
2022-10-30T13:18:14.607Z,44.20
2022-10-30T13:20:45.441Z,45.70
2022-10-30T13:23:21.634Z,44.70
2022-10-30T13:26:03.107Z,44.30
2022-10-30T13:28:40.146Z,43.70
2022-10-30T13:31:17.873Z,43.80
2022-10-30T13:33:53.864Z,43.70
2022-10-30T13:36:28.164Z,43.30
2022-10-30T13:39:01.706Z,43.70
2022-10-30T13:41:40.926Z,43.40
2022-10-30T13:44:22.759Z,43.10
2022-10-30T13:46:59.840Z,43.60
2022-10-30T13:49:49.298Z,42.90
2022-10-30T13:52:18.791Z,43.30
2022-10-30T13:54:57.990Z,42.70
2022-10-30T13:57:33.843Z,44.20
2022-10-30T14:00:07.692Z,42.90
2022-10-30T14:02:52.398Z,42.80
2022-10-30T14:05:31.902Z,44.30
2022-10-30T14:08:07.778Z,43.40
2022-10-30T14:10:46.460Z,43.90
2022-10-30T14:13:26.786Z,43.40
2022-10-30T14:15:57.617Z,42.40
2022-10-30T14:18:43.639Z,41.40
2022-10-30T14:21:38.622Z,41.20
2022-10-30T14:24:13.711Z,41.10
2022-10-30T14:26:50.091Z,41.70
2022-10-30T14:29:39.562Z,41.10
2022-10-30T14:32:40.952Z,41.20
2022-10-30T14:35:29.064Z,41.10
2022-10-30T14:37:58.164Z,41.30
2022-10-30T14:40:39.026Z,41.60
2022-10-30T14:43:16.001Z,41.70
2022-10-30T14:45:49.452Z,42.30
2022-10-30T14:48:23.434Z,42.30
2022-10-30T14:51:05.565Z,43.10
2022-10-30T14:53:51.757Z,43.20
2022-10-30T14:56:31.412Z,44.00
2022-10-30T14:59:23.049Z,44.20
2022-10-30T15:02:00.771Z,43.90
2022-10-30T15:04:41.534Z,43.70
2022-10-30T15:07:20.624Z,44.10
2022-10-30T15:10:01.253Z,44.40
2022-10-30T15:12:52.280Z,44.90
2022-10-30T15:15:22.263Z,44.40
2022-10-30T15:17:53.620Z,44.00
2022-10-30T15:20:24.849Z,44.00
2022-10-30T15:22:55.390Z,44.10
2022-10-30T15:25:25.410Z,45.00
2022-10-30T15:27:55.624Z,45.50
2022-10-30T15:30:26.890Z,45.90
2022-10-30T15:32:55.423Z,45.60
2022-10-30T15:35:25.733Z,45.50
2022-10-30T15:38:01.115Z,45.50
2022-10-30T15:40:30.374Z,46.20
2022-10-30T15:43:00.718Z,45.90
2022-10-30T15:45:35.359Z,46.40
2022-10-30T15:48:09.342Z,46.80
2022-10-30T15:50:41.476Z,47.10
2022-10-30T15:53:18.375Z,47.60
2022-10-30T15:55:46.665Z,48.20
2022-10-30T15:58:18.341Z,48.40
2022-10-30T16:00:57.700Z,48.80
2022-10-30T16:03:26.368Z,49.00
2022-10-30T16:06:05.690Z,49.40
2022-10-30T16:08:43.158Z,49.50
2022-10-30T16:11:11.347Z,49.80
2022-10-30T16:13:39.629Z,50.10
2022-10-30T16:18:44.803Z,50.30
2022-10-30T16:21:18.543Z,50.40
2022-10-30T16:23:54.784Z,50.50
2022-10-30T16:26:27.440Z,50.40
2022-10-30T16:28:55.402Z,50.60
2022-10-30T16:31:25.249Z,50.60
2022-10-30T16:33:54.134Z,50.60
2022-10-30T16:36:22.142Z,50.70
2022-10-30T16:38:52.216Z,50.40
2022-10-30T16:41:25.698Z,50.60
2022-10-30T16:44:27.409Z,50.30
2022-10-30T16:46:59.261Z,50.50
2022-10-30T16:49:30.573Z,49.90
2022-10-30T16:52:01.106Z,49.70
2022-10-30T16:54:32.172Z,49.50
2022-10-30T16:57:02.233Z,49.40
2022-10-30T16:59:34.041Z,49.80
2022-10-30T17:02:07.129Z,50.00
2022-10-30T17:04:36.190Z,50.20
2022-10-30T17:07:18.583Z,50.10
2022-10-30T17:09:48.200Z,50.10
2022-10-30T17:12:21.582Z,50.00
2022-10-30T17:14:55.856Z,49.70
2022-10-30T17:17:31.549Z,49.60
2022-10-30T17:20:06.110Z,49.50
2022-10-30T17:22:34.614Z,49.20
2022-10-30T17:25:02.690Z,49.50
2022-10-30T17:27:45.152Z,49.50
2022-10-30T17:30:39.015Z,49.60
2022-10-30T17:33:27.045Z,49.60
2022-10-30T17:38:29.048Z,50.50
2022-10-30T17:40:57.186Z,50.70
2022-10-30T17:43:28.685Z,50.70
2022-10-30T17:45:56.948Z,50.70
2022-10-30T17:48:28.209Z,50.50
2022-10-30T17:50:56.602Z,50.70
2022-10-30T17:53:26.075Z,50.40
2022-10-30T17:56:01.196Z,50.30
2022-10-30T17:58:30.752Z,50.30
2022-10-30T18:00:59.313Z,50.20
2022-10-30T18:03:29.080Z,49.80
2022-10-30T18:05:58.637Z,49.80
2022-10-30T18:08:26.628Z,49.60
2022-10-30T18:10:54.679Z,50.00
2022-10-30T18:13:22.711Z,50.40
2022-10-30T18:15:55.374Z,50.80
2022-10-30T18:18:23.341Z,51.10
2022-10-30T18:20:52.649Z,51.20
2022-10-30T18:23:51.429Z,51.40
2022-10-30T18:26:15.875Z,50.80
2022-10-30T18:28:43.990Z,50.30
2022-10-30T18:31:13.853Z,50.10
2022-10-30T18:33:41.889Z,49.70
2022-10-30T18:36:15.076Z,49.20
2022-10-30T18:38:43.177Z,49.40
2022-10-30T18:41:16.189Z,48.80
2022-10-30T18:43:46.917Z,48.90
2022-10-30T18:46:16.921Z,48.60
2022-10-30T18:48:45.595Z,48.80
2022-10-30T18:51:19.205Z,48.80
2022-10-30T18:53:52.395Z,49.30
2022-10-30T18:56:22.102Z,49.30
2022-10-30T18:58:53.567Z,49.90
2022-10-30T19:01:26.595Z,49.70
2022-10-30T19:03:54.973Z,50.00
2022-10-30T19:06:25.701Z,49.70
2022-10-30T19:08:55.813Z,50.30
2022-10-30T19:11:25.199Z,51.00
2022-10-30T19:13:54.900Z,51.60
2022-10-30T19:16:24.471Z,52.20
2022-10-30T19:18:52.768Z,52.40
2022-10-30T19:21:22.782Z,52.70
2022-10-30T19:23:54.691Z,52.50
2022-10-30T19:26:22.705Z,52.50
2022-10-30T19:28:50.675Z,51.90
2022-10-30T19:31:22.963Z,51.70
2022-10-30T19:33:54.569Z,51.50
2022-10-30T19:36:29.998Z,51.40
2022-10-30T19:39:04.218Z,51.20
2022-10-30T19:41:35.358Z,50.90
2022-10-30T19:44:03.332Z,50.80
2022-10-30T19:46:31.312Z,51.10
2022-10-30T19:49:00.091Z,51.10
2022-10-30T19:51:31.261Z,52.20
2022-10-30T19:54:00.592Z,51.90
2022-10-30T19:56:29.038Z,52.20
2022-10-30T19:58:57.334Z,52.40
2022-10-30T20:01:25.496Z,52.50
2022-10-30T20:03:53.582Z,52.60
2022-10-30T20:06:21.990Z,52.80
2022-10-30T20:08:50.235Z,52.70
2022-10-30T20:11:19.694Z,53.10
2022-10-30T20:13:52.189Z,53.70
2022-10-30T20:16:22.855Z,51.80
2022-10-30T20:18:51.255Z,51.00
2022-10-30T20:21:21.067Z,49.70
2022-10-30T20:23:49.146Z,49.20
2022-10-30T20:26:25.954Z,48.80
2022-10-30T20:28:54.534Z,48.70
2022-10-30T20:31:22.762Z,48.50
2022-10-30T20:33:50.751Z,48.70
2022-10-30T20:36:18.746Z,48.60
2022-10-30T20:38:46.779Z,48.90
2022-10-30T20:41:22.914Z,48.80
2022-10-30T20:43:52.534Z,48.70
2022-10-30T20:46:21.109Z,48.70
2022-10-30T20:48:52.772Z,48.40
2022-10-30T20:51:21.355Z,48.40
2022-10-30T20:53:50.793Z,48.20
2022-10-30T20:56:18.837Z,48.90
2022-10-30T20:58:46.788Z,49.20
2022-10-30T21:01:16.232Z,49.60
2022-10-30T21:03:45.576Z,50.10
2022-10-30T21:06:15.479Z,49.90
2022-10-30T21:08:43.511Z,49.90
2022-10-30T21:11:11.507Z,49.20
2022-10-30T21:13:40.789Z,50.50
2022-10-30T21:16:10.282Z,49.20
2022-10-30T21:18:39.594Z,50.00
2022-10-30T21:21:11.464Z,50.70
2022-10-30T21:23:39.580Z,49.90
2022-10-30T21:26:12.062Z,48.50
2022-10-30T21:28:40.308Z,48.90
2022-10-30T21:31:11.464Z,48.00
2022-10-30T21:33:43.056Z,47.70
2022-10-30T21:36:14.533Z,47.40
2022-10-30T21:38:44.279Z,47.60
2022-10-30T21:41:14.086Z,47.50
2022-10-30T21:43:42.404Z,47.60
2022-10-30T21:46:12.810Z,47.50
2022-10-30T21:48:41.140Z,47.60
2022-10-30T21:51:13.393Z,47.60
2022-10-30T21:53:42.187Z,48.30
2022-10-30T21:56:12.234Z,48.10
2022-10-30T21:58:41.135Z,48.30
2022-10-30T22:01:17.075Z,49.10
2022-10-30T22:03:45.161Z,50.70
2022-10-30T22:06:16.833Z,50.20
2022-10-30T22:08:46.993Z,49.50
2022-10-30T22:11:15.780Z,49.40
2022-10-30T22:13:44.182Z,48.50
2022-10-30T22:16:14.073Z,48.10
2022-10-30T22:18:42.259Z,47.50
2022-10-30T22:21:12.568Z,47.60
2022-10-30T22:23:42.727Z,47.70
2022-10-30T22:26:13.720Z,48.10
2022-10-30T22:28:42.210Z,47.50
2022-10-30T22:31:12.787Z,47.30
2022-10-30T22:33:41.248Z,48.80
2022-10-30T22:36:14.307Z,47.80
2022-10-30T22:38:44.023Z,47.10
2022-10-30T22:41:15.282Z,46.90
2022-10-30T22:43:44.666Z,46.60
2022-10-30T22:46:13.470Z,46.80
2022-10-30T22:48:41.520Z,46.80
2022-10-30T22:51:15.163Z,46.70
2022-10-30T22:53:46.700Z,47.00
2022-10-30T22:56:17.578Z,47.20
2022-10-30T22:58:46.470Z,47.50
2022-10-30T23:01:16.634Z,47.90
2022-10-30T23:03:45.284Z,48.30
2022-10-30T23:06:14.596Z,48.30
2022-10-30T23:08:43.324Z,48.30
2022-10-30T23:11:12.871Z,47.80
2022-10-30T23:13:41.387Z,48.40
2022-10-30T23:16:13.540Z,48.40
2022-10-30T23:18:42.442Z,47.40
2022-10-30T23:21:13.685Z,47.30
2022-10-30T23:23:42.563Z,47.40
2022-10-30T23:26:14.026Z,48.50
2022-10-30T23:28:44.956Z,48.10
2022-10-30T23:31:19.296Z,47.70
2022-10-30T23:33:48.718Z,48.10
2022-10-30T23:36:17.244Z,48.00
2022-10-30T23:38:45.587Z,49.20
2022-10-30T23:41:14.903Z,48.60
2022-10-30T23:43:42.841Z,49.00
2022-10-30T23:46:10.888Z,49.50
2022-10-30T23:48:38.859Z,49.40
2022-10-30T23:51:07.753Z,49.90
2022-10-30T23:53:35.851Z,49.30
2022-10-30T23:56:04.518Z,49.00
2022-10-30T23:58:33.917Z,48.60
